Terminal Aerodrome Forecast
Issued by NWS

Home | Current Version | Previous Version | Text Only | Print | Product List | Glossary On
Versions: 1 2 3 4 5 6 7 8 9 10 11 12 13 14 15
000
FTUS46 KMTR 191100
TAFMRY
TAF
KMRY 191138Z 1912/2012 11004KT P6SM SCT040
     FM191300 13005KT P6SM -SHRA FEW020 BKN035
     FM192200 26005KT P6SM -SHRA SCT035 BKN050
     FM200200 11003KT P6SM -SHRA SCT035 BKN050
     FM200600 11003KT P6SM VCSH SCT035 BKN050=

USA.gov is the U.S. government's official web portal to all federal, state and local government web resources and services.